Time;durP1;ratioP1;P1;durP2;ratioP2;P2;SDS_P1;SDS_P2;PMS_P1;PMS_P2;Temp;Humidity;BMP_temperature;BMP_pressure;BME280_temperature;BME280_humidity;BME280_pressure;Samples;Min_cycle;Max_cycle;Signal;HPM_P1;HPM_P2
2022/06/05 00:01:19;;;;;;;11.38;7.05;;;;;;;13.20;66.38;101471.09;5043034;28;20051;-79
2022/06/05 00:04:11;;;;;;;8.68;6.75;;;;;;;13.16;66.54;101462.47;5031953;28;20047;-79
2022/06/05 00:06:59;;;;;;;11.68;6.65;;;;;;;13.13;66.73;101457.34;5027747;28;20048;-80
2022/06/05 00:09:54;;;;;;;9.02;6.28;;;;;;;13.10;67.25;101461.94;5015494;28;20044;-80
2022/06/05 00:12:33;;;;;;;9.77;6.40;;;;;;;13.06;67.26;101468.38;5025384;28;20078;-82
2022/06/05 00:15:01;;;;;;;10.52;6.30;;;;;;;13.03;67.47;101455.31;4993636;28;20408;-78
2022/06/05 00:17:29;;;;;;;12.00;6.57;;;;;;;12.99;67.44;101457.28;5032149;28;20045;-80
2022/06/05 00:19:56;;;;;;;10.85;6.57;;;;;;;12.97;67.96;101455.63;5027289;28;20051;-79
2022/06/05 00:22:24;;;;;;;13.40;7.13;;;;;;;12.90;68.35;101449.84;4999229;28;20670;-79
2022/06/05 00:24:51;;;;;;;9.57;6.78;;;;;;;12.86;68.76;101456.25;5020046;28;20049;-80
2022/06/05 00:27:18;;;;;;;9.00;6.28;;;;;;;12.82;68.56;101446.78;5030132;28;20120;-80
2022/06/05 00:30:09;;;;;;;8.45;7.18;;;;;;;12.80;69.09;101449.50;5025972;28;20061;-83
2022/06/05 00:32:43;;;;;;;8.73;6.82;;;;;;;12.76;69.20;101450.63;5022290;28;20056;-79
2022/06/05 00:35:17;;;;;;;9.52;7.22;;;;;;;12.73;69.98;101453.41;4993545;28;20049;-82
2022/06/05 00:37:59;;;;;;;8.45;6.53;;;;;;;12.70;70.01;101453.59;5029119;28;20068;-80
2022/06/05 00:40:45;;;;;;;16.95;7.40;;;;;;;12.66;70.41;101463.47;5024381;28;20041;-85
2022/06/05 00:43:15;;;;;;;12.20;7.20;;;;;;;12.62;70.18;101456.66;5022540;28;20050;-80
2022/06/05 00:45:43;;;;;;;11.38;7.03;;;;;;;12.59;70.54;101456.81;5013075;28;20538;-78
2022/06/05 00:48:11;;;;;;;10.95;6.78;;;;;;;12.57;70.33;101450.78;5030991;28;20051;-80
2022/06/05 00:50:41;;;;;;;11.75;7.82;;;;;;;12.54;70.53;101445.66;5008594;28;20052;-81
2022/06/05 00:53:11;;;;;;;8.20;6.88;;;;;;;12.51;70.94;101447.59;4997865;28;20052;-80
2022/06/05 00:55:42;;;;;;;12.30;7.47;;;;;;;12.48;71.69;101453.91;5005659;28;20045;-80
2022/06/05 00:58:10;;;;;;;10.57;7.43;;;;;;;12.45;71.97;101450.56;4998615;28;20045;-80
2022/06/05 01:00:40;;;;;;;9.48;7.80;;;;;;;12.41;71.94;101463.09;5011957;28;20075;-81
2022/06/05 01:03:10;;;;;;;10.60;6.68;;;;;;;12.37;72.06;101467.66;5013838;28;20305;-79
2022/06/05 01:05:39;;;;;;;11.63;8.10;;;;;;;12.35;72.75;101466.91;4996825;28;20048;-78
2022/06/05 01:08:07;;;;;;;10.95;7.70;;;;;;;12.32;72.38;101460.94;5030588;28;20056;-79
2022/06/05 01:11:03;;;;;;;10.13;7.68;;;;;;;12.31;72.51;101459.22;4988308;28;20239;-78
2022/06/05 01:13:52;;;;;;;13.00;8.15;;;;;;;12.26;72.79;101455.97;4996282;28;20045;-80
2022/06/05 01:16:29;;;;;;;11.38;7.43;;;;;;;12.24;73.19;101456.03;5030638;28;20044;-80
2022/06/05 01:19:11;;;;;;;13.18;8.50;;;;;;;12.22;74.27;101463.19;5014516;28;20045;-80
2022/06/05 01:21:57;;;;;;;10.68;7.15;;;;;;;12.18;73.82;101460.81;5014746;28;20053;-79
2022/06/05 01:24:42;;;;;;;11.90;8.05;;;;;;;12.15;74.10;101467.09;5047469;28;20480;-78
2022/06/05 01:27:17;;;;;;;14.45;8.20;;;;;;;12.12;74.23;101467.25;4998043;28;21269;-79
2022/06/05 01:29:48;;;;;;;11.32;8.38;;;;;;;12.07;74.69;101464.88;5024431;28;20140;-80
2022/06/05 01:32:35;;;;;;;13.80;9.10;;;;;;;12.04;75.19;101459.72;5027022;28;20045;-81
2022/06/05 01:35:18;;;;;;;12.13;8.35;;;;;;;12.00;75.19;101455.53;4994845;28;20051;-82
2022/06/05 01:37:56;;;;;;;11.35;7.63;;;;;;;11.97;75.53;101452.19;5011858;28;20053;-79
2022/06/05 01:40:28;;;;;;;12.45;8.73;;;;;;;11.93;76.27;101448.88;5009985;28;20045;-83
2022/06/05 01:43:00;;;;;;;15.75;9.52;;;;;;;11.90;77.35;101452.53;5007767;28;20057;-79
2022/06/05 01:45:49;;;;;;;11.02;8.02;;;;;;;11.86;77.12;101445.69;5017877;28;20127;-79
2022/06/05 01:48:27;;;;;;;9.95;8.10;;;;;;;11.82;77.43;101438.00;5026966;28;20359;-79
2022/06/05 01:50:57;;;;;;;10.73;8.68;;;;;;;11.80;78.54;101437.22;5007917;28;20056;-78
2022/06/05 01:53:30;;;;;;;12.07;8.32;;;;;;;11.77;78.76;101432.09;5050968;28;20061;-80
2022/06/05 01:56:04;;;;;;;12.60;8.98;;;;;;;11.73;78.75;101439.31;5014683;28;20292;-79
2022/06/05 01:58:48;;;;;;;12.35;8.90;;;;;;;11.73;78.99;101430.53;5016225;28;20053;-79
2022/06/05 02:01:31;;;;;;;13.85;8.77;;;;;;;11.68;78.63;101425.50;5031489;28;20055;-83
2022/06/05 02:04:01;;;;;;;11.77;7.82;;;;;;;11.66;79.54;101432.63;5029685;28;20053;-82
2022/06/05 02:06:33;;;;;;;17.17;7.95;;;;;;;11.64;79.28;101434.50;5023864;28;20045;-81
2022/06/05 02:09:14;;;;;;;12.38;7.85;;;;;;;11.62;79.43;101428.47;5015597;28;20072;-80
2022/06/05 02:11:42;;;;;;;11.48;8.23;;;;;;;11.59;79.92;101425.97;4994823;28;20441;-79
2022/06/05 02:14:10;;;;;;;16.38;9.60;;;;;;;11.57;80.43;101423.41;5030797;28;20135;-80
2022/06/05 02:16:39;;;;;;;11.25;8.68;;;;;;;11.57;80.06;101425.19;4997948;28;20045;-79
2022/06/05 02:19:09;;;;;;;13.27;8.50;;;;;;;11.54;80.39;101426.19;4999689;28;20558;-77
2022/06/05 02:21:37;;;;;;;15.27;8.45;;;;;;;11.52;80.41;101428.03;4993387;28;20048;-78
2022/06/05 02:24:07;;;;;;;11.85;7.90;;;;;;;11.52;80.44;101432.47;5035579;28;20091;-77
2022/06/05 02:26:34;;;;;;;12.05;8.85;;;;;;;11.50;80.45;101427.28;5028973;28;20088;-77
2022/06/05 02:29:06;;;;;;;13.65;9.02;;;;;;;11.50;80.99;101429.06;5014383;28;20061;-80
2022/06/05 02:31:40;;;;;;;15.95;8.65;;;;;;;11.49;81.88;101425.59;5009369;28;20045;-79
2022/06/05 02:34:28;;;;;;;13.77;8.75;;;;;;;11.49;81.62;101432.66;5031716;28;20143;-80
2022/06/05 02:37:08;;;;;;;15.88;9.50;;;;;;;11.49;83.05;101430.00;5031958;28;20067;-77
2022/06/05 02:39:45;;;;;;;10.75;9.20;;;;;;;11.47;82.31;101430.06;5011465;28;20065;-81
2022/06/05 02:42:28;;;;;;;12.70;8.07;;;;;;;11.46;82.58;101416.97;5030880;28;20131;-78
2022/06/05 02:45:32;;;;;;;13.40;9.90;;;;;;;11.45;82.33;101420.53;5002842;28;20061;-79
2022/06/05 02:48:18;;;;;;;13.18;9.45;;;;;;;11.45;82.01;101424.03;5047564;28;20216;-79
2022/06/05 02:50:49;;;;;;;;;;;;;;;11.44;82.92;101418.81;5026203;28;20048;-78
2022/06/05 02:53:16;;;;;;;12.30;8.88;;;;;;;11.40;83.11;101413.72;5031192;28;19942;-80
2022/06/05 02:55:44;;;;;;;11.65;9.52;;;;;;;11.37;84.14;101413.84;5013424;28;20132;-77
2022/06/05 02:58:12;;;;;;;12.38;9.65;;;;;;;11.37;83.99;101415.63;5014814;28;20045;-79
2022/06/05 03:00:39;;;;;;;10.18;8.75;;;;;;;11.35;83.78;101415.72;5013276;28;20053;-79
2022/06/05 03:05:53;;;;;;;13.57;9.20;;;;;;;11.35;83.77;101414.88;5029859;28;20049;-82
2022/06/05 03:08:21;;;;;;;12.30;9.13;;;;;;;11.38;83.23;101414.69;5031190;28;20051;-78
2022/06/05 03:10:48;;;;;;;13.10;9.13;;;;;;;11.39;83.71;101403.22;5013561;28;20044;-81
2022/06/05 03:13:17;;;;;;;13.50;9.52;;;;;;;11.38;83.68;101412.91;5014581;28;20466;-79
2022/06/05 03:15:44;;;;;;;13.35;10.00;;;;;;;11.38;84.81;101412.91;5026245;28;20072;-79
2022/06/05 03:18:15;;;;;;;13.07;10.02;;;;;;;11.37;84.29;101411.22;5031587;28;20060;-81
2022/06/05 03:20:42;;;;;;;10.68;9.57;;;;;;;11.36;84.44;101406.03;5042519;28;20057;-81
2022/06/05 03:23:10;;;;;;;10.68;9.00;;;;;;;11.38;84.40;101401.53;5048577;28;20044;-79
2022/06/05 03:25:39;;;;;;;11.68;8.93;;;;;;;11.39;84.25;101412.00;5012968;28;20064;-80
2022/06/05 03:28:08;;;;;;;13.13;9.95;;;;;;;11.40;83.91;101408.44;5025929;28;20068;-79
2022/06/05 03:30:37;;;;;;;14.45;9.68;;;;;;;11.43;84.03;101415.31;5012289;28;20045;-79
2022/06/05 03:33:05;;;;;;;11.43;9.40;;;;;;;11.44;84.21;101417.06;5014286;28;20431;-79
2022/06/05 03:35:41;;;;;;;15.48;10.30;;;;;;;11.45;84.19;101423.19;5029156;28;20060;-80
2022/06/05 03:38:09;;;;;;;14.82;9.63;;;;;;;11.46;84.52;101423.09;5028286;28;20044;-79
2022/06/05 03:40:39;;;;;;;13.18;9.45;;;;;;;11.48;84.29;101423.84;5028129;28;20369;-78
2022/06/05 03:43:07;;;;;;;13.90;9.38;;;;;;;11.49;83.93;101422.94;5014534;28;20075;-78
2022/06/05 03:45:34;;;;;;;15.85;9.70;;;;;;;11.51;84.10;101431.63;5043168;28;20492;-80
2022/06/05 03:48:02;;;;;;;14.15;9.13;;;;;;;11.53;84.06;101437.69;5010137;28;20499;-79
2022/06/05 03:50:31;;;;;;;12.68;10.00;;;;;;;11.55;83.30;101435.81;5029103;28;20199;-79
2022/06/05 03:52:59;;;;;;;15.63;10.00;;;;;;;11.57;83.18;101439.25;5014608;28;20076;-80
2022/06/05 03:55:26;;;;;;;11.60;8.95;;;;;;;11.59;83.37;101434.72;4995084;28;20037;-81
2022/06/05 03:57:53;;;;;;;12.35;8.77;;;;;;;11.60;83.30;101425.03;5027104;28;20049;-80
2022/06/05 04:00:22;;;;;;;12.45;10.00;;;;;;;11.63;82.93;101416.97;5044455;28;20037;-78
2022/06/05 04:02:49;;;;;;;15.02;10.38;;;;;;;11.64;83.60;101411.63;5014054;28;20497;-79
2022/06/05 04:05:19;;;;;;;16.23;9.63;;;;;;;11.69;82.98;101415.81;5010857;28;20419;-79
2022/06/05 04:07:47;;;;;;;13.75;9.27;;;;;;;11.72;82.73;101407.75;5030250;28;20057;-83
2022/06/05 04:10:16;;;;;;;12.95;8.65;;;;;;;11.74;82.79;101404.06;5027798;28;20562;-79
2022/06/05 04:12:44;;;;;;;11.68;9.73;;;;;;;11.77;82.87;101403.94;5013498;28;20128;-79
2022/06/05 04:15:12;;;;;;;10.52;8.60;;;;;;;11.79;82.21;101415.25;5024664;28;20416;-80
2022/06/05 04:17:39;;;;;;;12.52;9.60;;;;;;;11.81;82.26;101409.91;5031006;28;20142;-80
2022/06/05 04:20:07;;;;;;;11.95;10.02;;;;;;;11.84;83.08;101420.31;5030146;28;20520;-82
2022/06/05 04:22:36;;;;;;;14.20;9.85;;;;;;;11.84;82.93;101418.56;5018477;28;20132;-80
2022/06/05 04:25:06;;;;;;;10.80;9.55;;;;;;;11.85;82.85;101420.25;5011085;28;20594;-81
2022/06/05 04:27:34;;;;;;;12.98;9.65;;;;;;;11.88;82.42;101416.59;5024835;28;20053;-79
2022/06/05 04:30:01;;;;;;;13.15;10.23;;;;;;;11.90;82.07;101422.66;5045188;28;20049;-77
2022/06/05 04:32:29;;;;;;;12.65;9.02;;;;;;;11.94;82.09;101426.84;5013741;28;20053;-78
2022/06/05 04:34:56;;;;;;;11.80;9.60;;;;;;;11.97;81.85;101421.38;5010743;28;20075;-80
2022/06/05 04:37:26;;;;;;;10.55;8.77;;;;;;;12.03;81.69;101409.69;5008644;28;20132;-80
2022/06/05 04:39:53;;;;;;;13.85;9.77;;;;;;;12.09;81.32;101409.34;5039589;28;20049;-79
2022/06/05 04:42:20;;;;;;;13.05;8.63;;;;;;;12.14;81.75;101402.03;4995606;28;20045;-80
2022/06/05 04:44:48;;;;;;;14.75;9.93;;;;;;;12.16;81.29;101400.19;5008718;28;20053;-81
2022/06/05 04:47:15;;;;;;;12.32;8.85;;;;;;;12.22;81.05;101404.28;5014152;28;20037;-79
2022/06/05 04:49:42;;;;;;;13.57;8.13;;;;;;;12.28;80.88;101401.31;5008107;28;20048;-82
2022/06/05 04:52:10;;;;;;;8.27;7.40;;;;;;;12.35;80.71;101394.78;5003114;28;20412;-80
2022/06/05 04:54:37;;;;;;;10.45;7.90;;;;;;;12.44;80.18;101385.50;5019083;28;20075;-83
2022/06/05 04:57:04;;;;;;;9.23;7.47;;;;;;;12.49;80.11;101380.81;4995765;28;20075;-81
2022/06/05 04:59:32;;;;;;;14.88;8.30;;;;;;;12.53;79.64;101380.56;5013297;28;20057;-78
2022/06/05 05:01:59;;;;;;;11.77;8.15;;;;;;;12.60;79.69;101376.63;5045579;28;20099;-79
2022/06/05 05:04:26;;;;;;;9.88;6.97;;;;;;;12.68;79.01;101374.41;5014016;28;20045;-81
2022/06/05 05:06:54;;;;;;;13.57;7.97;;;;;;;12.76;78.81;101368.72;5028032;28;20500;-79
2022/06/05 05:09:23;;;;;;;16.30;8.32;;;;;;;12.83;78.53;101369.19;5009157;28;20057;-79
2022/06/05 05:11:50;;;;;;;11.63;7.50;;;;;;;12.90;78.04;101360.84;5024566;28;20724;-78
2022/06/05 05:14:17;;;;;;;12.63;8.00;;;;;;;12.96;78.05;101362.28;5017684;28;20045;-81
2022/06/05 05:16:44;;;;;;;11.27;7.60;;;;;;;13.06;77.75;101371.41;5046229;28;20056;-81
2022/06/05 05:19:12;;;;;;;9.38;6.72;;;;;;;13.18;77.37;101381.25;5028055;28;20072;-80
2022/06/05 05:21:39;;;;;;;9.75;7.82;;;;;;;13.26;76.84;101387.94;5021826;28;20050;-81
2022/06/05 05:24:07;;;;;;;7.80;6.93;;;;;;;13.33;76.14;101378.72;5029044;28;20240;-78
2022/06/05 05:26:35;;;;;;;8.50;6.85;;;;;;;13.43;76.04;101369.31;4991735;28;20537;-77
2022/06/05 05:29:03;;;;;;;11.20;7.07;;;;;;;13.51;75.37;101366.19;5012742;28;20493;-78
2022/06/05 05:31:33;;;;;;;11.15;7.45;;;;;;;13.57;74.65;101371.97;5010470;28;20055;-78
2022/06/05 05:34:00;;;;;;;8.20;6.53;;;;;;;13.67;74.85;101366.97;5011882;28;20067;-78
2022/06/05 05:36:28;;;;;;;9.80;7.35;;;;;;;13.77;74.38;101359.34;5009350;28;20173;-78
2022/06/05 05:44:40;;;;;;;10.90;6.93;;;;;;;14.08;72.77;101351.22;5014631;28;20045;-80
2022/06/05 05:47:10;;;;;;;9.60;6.88;;;;;;;14.17;72.92;101355.09;5011844;28;20131;-80
2022/06/05 05:49:38;;;;;;;11.18;6.40;;;;;;;14.32;72.72;101350.63;5012000;28;20078;-79
2022/06/05 05:52:06;;;;;;;8.52;6.35;;;;;;;14.42;71.70;101357.91;5021884;28;20064;-81
2022/06/05 05:54:35;;;;;;;10.05;6.75;;;;;;;14.51;70.98;101356.50;5028244;28;20053;-80
2022/06/05 05:57:03;;;;;;;11.18;6.68;;;;;;;14.64;70.70;101349.47;5023762;28;20049;-79
2022/06/05 05:59:30;;;;;;;11.10;6.72;;;;;;;14.74;70.00;101338.28;5012570;28;20029;-79
2022/06/05 06:01:57;;;;;;;9.93;7.28;;;;;;;14.86;69.76;101334.81;5026701;28;20058;-80
2022/06/05 06:04:24;;;;;;;9.25;6.68;;;;;;;14.93;69.25;101341.41;5002627;28;20046;-78
2022/06/05 06:06:53;;;;;;;10.43;7.38;;;;;;;15.00;69.20;101341.88;5008788;28;20055;-80
2022/06/05 06:09:20;;;;;;;10.68;6.78;;;;;;;15.07;68.48;101340.50;5004746;28;20487;-79
2022/06/05 06:11:47;;;;;;;10.57;7.20;;;;;;;15.15;68.57;101338.19;5009494;28;20132;-79
2022/06/05 06:14:15;;;;;;;10.60;6.68;;;;;;;15.28;68.42;101341.72;5042316;28;20072;-79
2022/06/05 06:16:42;;;;;;;9.45;7.13;;;;;;;15.40;67.71;101340.03;5025884;28;20519;-79
2022/06/05 06:19:10;;;;;;;10.10;6.80;;;;;;;15.57;67.70;101346.84;5028346;28;20044;-80
2022/06/05 06:21:37;;;;;;;9.02;6.03;;;;;;;15.67;67.45;101338.22;5026773;28;20060;-79
2022/06/05 06:24:11;;;;;;;10.20;7.03;;;;;;;15.77;66.55;101335.75;5030753;28;20056;-79
2022/06/05 06:26:39;;;;;;;7.90;6.82;;;;;;;15.90;66.52;101341.06;5005762;28;20119;-80
2022/06/05 06:29:08;;;;;;;10.52;6.40;;;;;;;15.99;66.17;101339.59;5028681;28;20380;-80
2022/06/05 06:31:38;;;;;;;8.50;6.40;;;;;;;16.09;65.57;101340.63;5021992;28;20060;-79
2022/06/05 06:34:06;;;;;;;8.35;7.18;;;;;;;16.19;65.78;101344.31;5032470;28;20180;-81
2022/06/05 06:36:35;;;;;;;6.90;5.82;;;;;;;16.32;65.23;101344.31;5030164;28;20411;-78
2022/06/05 06:39:19;;;;;;;9.43;6.97;;;;;;;16.43;64.33;101347.03;5016429;28;20053;-79
2022/06/05 06:41:47;;;;;;;10.65;7.07;;;;;;;16.50;64.29;101340.31;5025917;28;20053;-82
2022/06/05 06:44:15;;;;;;;8.95;6.15;;;;;;;16.68;64.08;101343.44;5028351;28;20113;-81
2022/06/05 06:46:43;;;;;;;8.80;6.68;;;;;;;16.77;63.76;101340.16;5010807;28;20064;-81
2022/06/05 06:49:10;;;;;;;9.18;6.45;;;;;;;16.86;63.28;101341.28;5048007;28;20136;-79
2022/06/05 06:51:37;;;;;;;12.45;6.90;;;;;;;16.91;63.10;101337.31;5048285;28;20053;-79
2022/06/05 06:54:04;;;;;;;10.52;6.10;;;;;;;16.96;62.78;101332.50;5027176;28;20355;-81
2022/06/05 06:56:33;;;;;;;9.77;6.78;;;;;;;17.09;62.57;101327.09;5030043;28;20063;-79
2022/06/05 06:59:02;;;;;;;9.68;6.13;;;;;;;17.21;62.48;101336.84;4999036;28;20057;-83
2022/06/05 07:01:30;;;;;;;7.82;6.53;;;;;;;17.29;61.80;101330.06;5013125;28;20049;-83
2022/06/05 07:03:57;;;;;;;8.93;6.68;;;;;;;17.35;61.70;101329.63;5031086;28;20057;-80
2022/06/05 07:06:24;;;;;;;10.27;5.57;;;;;;;17.45;61.52;101323.47;5006529;28;20048;-79
2022/06/05 07:08:52;;;;;;;8.10;5.90;;;;;;;17.58;61.40;101328.69;5032154;28;20052;-80
2022/06/05 07:11:19;;;;;;;8.57;6.43;;;;;;;17.69;61.08;101325.19;5027771;28;20044;-80
2022/06/05 07:13:49;;;;;;;8.80;5.68;;;;;;;17.86;60.88;101321.25;5012297;28;20053;-81
2022/06/05 07:16:18;;;;;;;8.48;6.32;;;;;;;18.01;60.71;101327.19;5028681;28;20485;-79
2022/06/05 07:18:46;;;;;;;8.70;6.20;;;;;;;18.13;60.32;101324.41;5019780;28;20546;-78
2022/06/05 07:21:20;;;;;;;7.55;6.07;;;;;;;18.27;59.72;101314.44;5035850;28;20053;-79
2022/06/05 07:23:53;;;;;;;6.95;5.70;;;;;;;18.40;59.85;101323.16;5008679;28;20053;-78
2022/06/05 07:26:23;;;;;;;7.15;5.75;;;;;;;18.53;58.78;101312.34;5012938;28;20041;-79
2022/06/05 07:28:51;;;;;;;6.78;5.25;;;;;;;18.63;58.53;101299.94;5015765;28;20080;-81
2022/06/05 07:31:18;;;;;;;7.93;6.15;;;;;;;18.70;58.32;101303.84;5012847;28;20045;-80
2022/06/05 07:33:47;;;;;;;9.95;5.68;;;;;;;18.87;57.66;101303.31;5016494;28;20102;-81
2022/06/05 07:36:16;;;;;;;7.78;5.60;;;;;;;18.98;56.73;101297.06;5048263;28;20049;-79
2022/06/05 07:38:48;;;;;;;7.18;5.63;;;;;;;19.11;56.48;101294.22;5032387;28;20083;-82
2022/06/05 07:41:20;;;;;;;6.57;5.57;;;;;;;19.19;56.81;101292.59;4991318;28;20052;-79
2022/06/05 07:43:48;;;;;;;8.38;6.03;;;;;;;19.32;55.77;101288.84;5021517;28;20554;-78
2022/06/05 07:46:16;;;;;;;9.20;5.18;;;;;;;19.45;55.75;101281.50;5010977;28;20132;-80
2022/06/05 07:48:44;;;;;;;6.18;5.30;;;;;;;19.59;54.99;101275.84;5013842;28;20503;-80
2022/06/05 07:56:46;;;;;;;;;;;;;;;19.92;53.13;101279.25;5029512;28;20139;-79
2022/06/05 07:59:14;;;;;;;7.18;5.00;;;;;;;20.05;53.02;101279.00;5030359;28;19928;-80
2022/06/05 08:01:58;;;;;;;6.18;4.85;;;;;;;20.14;52.72;101276.34;4999303;28;20063;-81
2022/06/05 08:04:27;;;;;;;9.48;5.40;;;;;;;20.30;51.45;101269.63;5045306;28;20391;-79
2022/06/05 08:06:57;;;;;;;13.73;5.25;;;;;;;20.40;52.03;101267.84;5012820;28;20433;-82
2022/06/05 08:09:25;;;;;;;6.68;4.97;;;;;;;20.57;51.98;101264.50;5014184;28;20047;-80
2022/06/05 08:11:53;;;;;;;9.00;4.88;;;;;;;20.74;51.51;101270.97;5027164;28;20045;-78
2022/06/05 08:14:21;;;;;;;5.45;4.43;;;;;;;20.86;50.87;101269.03;5026995;28;20086;-79
2022/06/05 08:16:49;;;;;;;8.38;5.03;;;;;;;20.94;49.81;101263.81;5026096;28;20059;-79
2022/06/05 08:19:21;;;;;;;6.47;4.85;;;;;;;21.11;49.62;101256.88;5029721;28;20151;-81
2022/06/05 08:21:51;;;;;;;5.80;4.55;;;;;;;21.22;49.32;101257.56;5025720;28;20086;-79
2022/06/05 08:24:18;;;;;;;7.43;5.15;;;;;;;21.35;48.91;101257.28;5030476;28;20222;-79
2022/06/05 08:26:47;;;;;;;12.10;4.95;;;;;;;21.49;48.54;101261.34;5041826;28;20041;-79
2022/06/05 08:29:14;;;;;;;5.13;4.05;;;;;;;21.58;48.31;101265.81;5013621;28;20143;-81
2022/06/05 08:31:43;;;;;;;7.90;4.97;;;;;;;21.68;46.91;101255.91;5011491;28;20428;-78
2022/06/05 08:34:12;;;;;;;5.32;4.03;;;;;;;21.69;46.79;101246.88;5031133;28;20068;-82
2022/06/05 08:36:40;;;;;;;11.80;4.55;;;;;;;21.82;46.25;101256.41;5011684;28;20041;-80
2022/06/05 08:42:29;;;;;;;7.00;3.78;;;;;;;22.16;45.66;101245.97;5027771;28;20067;-81
2022/06/05 08:45:02;;;;;;;5.22;3.22;;;;;;;22.34;43.72;101232.59;5043410;28;20135;-80
2022/06/05 08:47:42;;;;;;;6.25;4.25;;;;;;;22.37;43.50;101226.91;5030198;28;20059;-81
2022/06/05 08:50:21;;;;;;;6.32;4.03;;;;;;;22.51;43.69;101226.34;5045754;28;20060;-81
2022/06/05 08:52:52;;;;;;;7.32;4.45;;;;;;;22.58;43.34;101229.28;5028341;28;20068;-80
2022/06/05 08:55:28;;;;;;;5.55;3.90;;;;;;;22.70;43.58;101231.59;5041787;28;20160;-80
2022/06/05 08:58:15;;;;;;;6.65;4.22;;;;;;;22.94;43.31;101224.75;5048086;28;20094;-79
2022/06/05 09:00:46;;;;;;;7.85;3.55;;;;;;;23.10;41.45;101224.00;5026800;28;20102;-80
2022/06/05 09:03:21;;;;;;;5.60;3.70;;;;;;;23.16;41.53;101226.94;5011415;28;20106;-81
2022/06/05 09:05:54;;;;;;;4.55;3.65;;;;;;;23.24;41.64;101221.63;5010219;28;20074;-81
2022/06/05 09:08:32;;;;;;;5.40;3.83;;;;;;;23.43;41.26;101219.72;5025364;28;20126;-79
2022/06/05 09:11:02;;;;;;;8.80;3.72;;;;;;;23.56;40.83;101225.50;5025561;28;20056;-79
2022/06/05 09:13:45;;;;;;;6.75;3.30;;;;;;;23.62;39.88;101218.63;5027067;28;20076;-77
2022/06/05 09:16:22;;;;;;;4.22;3.20;;;;;;;23.79;39.81;101222.25;5027191;28;20404;-77
2022/06/05 09:18:50;;;;;;;7.20;3.45;;;;;;;23.91;39.49;101215.56;5030666;28;20139;-79
2022/06/05 09:21:24;;;;;;;4.18;3.55;;;;;;;24.04;39.19;101215.09;5026317;28;20057;-79
2022/06/05 09:24:27;;;;;;;5.78;3.65;;;;;;;24.09;39.27;101216.31;5013001;28;20061;-79
2022/06/05 09:27:00;;;;;;;4.80;3.15;;;;;;;24.18;38.74;101214.47;5000465;28;20057;-79
2022/06/05 09:29:45;;;;;;;3.40;2.97;;;;;;;24.31;38.36;101203.22;5027520;28;20045;-79
2022/06/05 09:32:50;;;;;;;3.72;3.13;;;;;;;24.46;37.85;101194.38;5029360;28;20523;-80
2022/06/05 09:35:23;;;;;;;5.50;3.22;;;;;;;24.54;37.88;101198.91;5045069;28;20396;-81
2022/06/05 09:38:14;;;;;;;7.80;3.80;;;;;;;24.65;37.31;101200.44;5013370;28;20049;-78
2022/06/05 09:41:11;;;;;;;4.40;3.28;;;;;;;24.83;37.01;101194.88;5008159;28;20148;-79
2022/06/05 09:44:07;;;;;;;4.68;2.95;;;;;;;25.05;36.27;101193.34;4991949;28;20074;-79
2022/06/05 09:47:05;;;;;;;6.35;3.00;;;;;;;25.13;36.32;101186.13;5000063;28;20071;-78
2022/06/05 09:49:42;;;;;;;4.30;3.03;;;;;;;25.27;36.33;101194.50;5027493;28;20144;-80
2022/06/05 09:52:31;;;;;;;3.17;2.85;;;;;;;25.37;35.77;101187.06;5011059;28;20367;-80
2022/06/05 09:55:01;;;;;;;7.65;3.00;;;;;;;25.46;35.36;101178.78;5006644;28;20056;-79
2022/06/05 10:00:36;;;;;;;5.60;2.78;;;;;;;25.61;34.22;101186.97;5033606;28;20068;-80
2022/06/05 10:03:06;;;;;;;5.43;3.13;;;;;;;25.47;33.78;101188.53;5032668;28;21470;-79
2022/06/05 10:05:36;;;;;;;9.88;4.53;;;;;;;25.49;33.76;101183.81;5012143;28;20056;-81
2022/06/05 10:08:14;;;;;;;3.10;2.80;;;;;;;25.51;34.58;101180.94;5017382;28;20045;-79
2022/06/05 10:10:42;;;;;;;5.25;3.28;;;;;;;25.60;34.48;101185.28;5029224;28;20072;-80
2022/06/05 10:13:19;;;;;;;4.57;3.20;;;;;;;25.78;34.75;101184.22;5039041;28;20053;-79
2022/06/05 10:15:55;;;;;;;6.95;3.05;;;;;;;25.97;33.77;101173.00;5028823;28;20064;-80
2022/06/05 10:18:28;;;;;;;5.22;2.85;;;;;;;26.18;33.91;101164.25;4998421;28;20049;-80
2022/06/05 10:21:10;;;;;;;4.97;2.90;;;;;;;26.05;33.09;101162.16;5012804;28;20052;-79
2022/06/05 10:23:49;;;;;;;4.03;3.05;;;;;;;25.93;33.70;101160.88;5016325;28;20132;-79
2022/06/05 10:26:34;;;;;;;4.40;2.72;;;;;;;26.16;33.97;101164.47;5014131;28;20053;-80
2022/06/05 10:29:18;;;;;;;3.50;3.20;;;;;;;26.36;34.54;101166.66;4998532;28;20526;-83
2022/06/05 10:31:54;;;;;;;5.40;3.80;;;;;;;26.40;34.08;101163.44;5028244;28;20060;-80
2022/06/05 10:34:40;;;;;;;3.95;3.45;;;;;;;26.35;33.66;101148.81;5026420;28;20056;-80
2022/06/05 10:37:35;;;;;;;8.00;3.03;;;;;;;26.51;34.41;101140.56;4999338;28;20064;-80
2022/06/05 10:40:19;;;;;;;3.65;2.67;;;;;;;26.63;34.19;101128.31;5029371;28;20044;-80
2022/06/05 10:43:09;;;;;;;3.92;3.28;;;;;;;26.75;34.31;101129.56;5011794;28;20451;-80
2022/06/05 10:45:42;;;;;;;5.88;3.40;;;;;;;26.86;34.31;101125.56;5046291;28;20067;-80
2022/06/05 10:48:40;;;;;;;4.32;3.17;;;;;;;27.01;34.18;101122.84;5017990;28;20126;-78
2022/06/05 10:51:41;;;;;;;3.55;3.03;;;;;;;27.10;34.26;101127.19;5029784;28;20052;-80
2022/06/05 10:54:39;;;;;;;4.05;3.50;;;;;;;26.88;34.73;101112.69;5031404;28;20151;-78
2022/06/05 10:57:18;;;;;;;;;;;;;;;26.84;34.86;101113.25;5030537;28;20151;-80
2022/06/05 11:00:11;;;;;;;3.83;3.30;;;;;;;26.97;34.82;101111.59;5026474;28;19925;-83
2022/06/05 11:03:11;;;;;;;3.88;3.38;;;;;;;27.16;34.61;101104.81;5032623;28;20087;-79
2022/06/05 11:05:51;;;;;;;4.78;3.30;;;;;;;27.37;34.57;101097.81;5028489;28;20049;-80
2022/06/05 11:08:41;;;;;;;5.75;3.40;;;;;;;27.48;34.52;101091.91;5014376;28;20492;-79
2022/06/05 11:14:29;;;;;;;5.85;3.85;;;;;;;27.65;34.40;101087.97;5001063;28;20128;-80
2022/06/05 11:17:05;;;;;;;4.53;3.65;;;;;;;27.72;34.04;101093.47;5029470;28;20049;-81
2022/06/05 11:19:44;;;;;;;3.83;3.50;;;;;;;27.77;34.33;101085.59;5032146;28;20067;-81
2022/06/05 11:22:15;;;;;;;3.72;3.17;;;;;;;27.88;34.12;101077.00;5031440;28;20051;-81
2022/06/05 11:24:51;;;;;;;5.45;4.20;;;;;;;28.05;34.21;101074.00;5040361;28;20140;-82
2022/06/05 11:27:46;;;;;;;3.88;3.40;;;;;;;28.10;33.73;101074.25;5013846;28;20041;-79
2022/06/05 11:30:21;;;;;;;6.63;3.47;;;;;;;27.99;33.64;101065.66;5045940;28;20068;-82
2022/06/05 11:33:13;;;;;;;5.63;4.00;;;;;;;28.07;34.06;101064.69;5029011;28;20083;-80
2022/06/05 11:35:55;;;;;;;4.32;3.60;;;;;;;28.17;34.22;101056.22;5037145;28;20045;-80
2022/06/05 11:38:54;;;;;;;6.05;4.25;;;;;;;28.39;34.11;101046.22;5049283;28;20057;-79
2022/06/05 11:41:27;;;;;;;4.50;3.78;;;;;;;28.59;33.07;101047.19;5010687;28;20060;-78
2022/06/05 11:44:22;;;;;;;4.32;3.55;;;;;;;28.68;32.60;101037.88;5012334;28;20056;-81
2022/06/05 11:46:56;;;;;;;4.18;3.40;;;;;;;28.80;32.22;101030.03;5025027;28;20064;-80
2022/06/05 11:49:51;;;;;;;4.50;4.00;;;;;;;28.88;32.76;101021.75;5030469;28;20041;-80
2022/06/05 11:52:24;;;;;;;5.40;3.57;;;;;;;28.99;32.75;101012.22;5013764;28;20083;-80
2022/06/05 11:55:05;;;;;;;4.00;3.60;;;;;;;29.09;32.29;101023.53;4993915;28;20502;-81
2022/06/05 11:57:46;;;;;;;4.18;3.53;;;;;;;29.13;31.97;101013.09;5010534;28;20512;-78
2022/06/05 12:00:14;;;;;;;3.88;3.10;;;;;;;29.18;31.71;101018.75;5028430;28;20037;-81
2022/06/05 12:03:19;;;;;;;4.70;3.60;;;;;;;29.29;31.50;101004.63;5030615;28;20052;-78
2022/06/05 12:06:07;;;;;;;4.05;3.45;;;;;;;29.42;30.26;101003.81;5027535;28;20063;-81
2022/06/05 12:08:41;;;;;;;4.22;3.10;;;;;;;29.49;30.15;100991.09;5025533;28;20433;-78
2022/06/05 12:11:12;;;;;;;;;;;;;;;29.57;29.76;100977.38;5011761;28;20045;-81
2022/06/05 12:14:17;;;;;;;4.32;3.78;;;;;;;29.58;29.97;100960.06;5029911;28;19921;-82
2022/06/05 12:16:46;;;;;;;3.70;3.40;;;;;;;29.70;30.03;100966.53;5031012;28;20507;-80